Time;durP1;ratioP1;P1;durP2;ratioP2;P2;SDS_P1;SDS_P2;PMS_P1;PMS_P2;Temp;Humidity;BMP_temperature;BMP_pressure;BME280_temperature;BME280_humidity;BME280_pressure;Samples;Min_cycle;Max_cycle;Signal;HPM_P1;HPM_P2
2024/03/19 00:01:21;;;;;;;9.17;4.47;;;;;;;;;;5050429;28;20428;-78
2024/03/19 00:03:46;;;;;;;9.97;5.43;;;;;;;;;;5047986;28;20033;-78
2024/03/19 00:06:11;;;;;;;8.07;4.60;;;;;;;;;;5047038;28;20036;-78
2024/03/19 00:08:37;;;;;;;10.23;4.07;;;;;;;;;;5045281;28;20489;-78
2024/03/19 00:11:02;;;;;;;8.40;3.77;;;;;;;;;;5027674;28;20127;-78
2024/03/19 00:13:27;;;;;;;9.33;3.77;;;;;;;;;;5050896;28;20025;-78
2024/03/19 00:15:52;;;;;;;7.37;3.80;;;;;;;;;;5048488;28;20564;-78
2024/03/19 00:18:18;;;;;;;8.00;4.88;;;;;;;;;;5047714;28;20092;-78
2024/03/19 00:20:43;;;;;;;8.70;4.17;;;;;;;;;;5045990;28;20087;-78
2024/03/19 00:23:08;;;;;;;8.57;4.00;;;;;;;;;;5042707;28;20028;-78
2024/03/19 00:25:35;;;;;;;7.73;4.30;;;;;;;;;;5035626;28;20045;-78
2024/03/19 00:28:00;;;;;;;9.30;4.00;;;;;;;;;;5052532;28;20025;-78
2024/03/19 00:30:26;;;;;;;9.30;4.00;;;;;;;;;;5052343;28;20036;-78
2024/03/19 00:32:51;;;;;;;10.77;4.03;;;;;;;;;;5049474;28;20033;-78
2024/03/19 00:35:17;;;;;;;8.10;4.17;;;;;;;;;;5048792;28;20036;-79
2024/03/19 00:37:42;;;;;;;8.33;4.10;;;;;;;;;;5032626;28;20063;-79
2024/03/19 00:40:10;;;;;;;9.50;4.20;;;;;;;;;;5050003;28;20099;-79
2024/03/19 00:42:39;;;;;;;7.87;4.00;;;;;;;;;;5051553;28;20032;-81
2024/03/19 00:45:04;;;;;;;8.23;4.17;;;;;;;;;;5048337;28;20037;-80
2024/03/19 00:47:30;;;;;;;11.23;4.80;;;;;;;;;;5049516;28;20400;-79
2024/03/19 00:49:55;;;;;;;7.60;4.30;;;;;;;;;;5032882;28;20025;-79
2024/03/19 00:52:21;;;;;;;10.50;4.57;;;;;;;;;;5046018;28;20095;-80
2024/03/19 00:54:46;;;;;;;9.27;5.20;;;;;;;;;;5050569;28;20060;-79
2024/03/19 00:57:11;;;;;;;9.60;4.70;;;;;;;;;;5049435;28;20030;-80
2024/03/19 00:59:36;;;;;;;7.20;4.37;;;;;;;;;;5048031;28;20025;-79
2024/03/19 01:02:02;;;;;;;9.13;4.60;;;;;;;;;;5043193;28;20044;-79
2024/03/19 01:04:27;;;;;;;8.57;4.13;;;;;;;;;;5027032;28;20021;-79
2024/03/19 01:06:52;;;;;;;8.60;4.80;;;;;;;;;;5040360;28;20490;-79
2024/03/19 01:09:18;;;;;;;8.87;4.57;;;;;;;;;;5048926;28;20037;-79
2024/03/19 01:11:44;;;;;;;11.13;5.57;;;;;;;;;;5034097;28;20572;-79
2024/03/19 01:14:10;;;;;;;10.20;4.80;;;;;;;;;;5044484;28;20048;-79
2024/03/19 01:16:35;;;;;;;7.37;4.83;;;;;;;;;;5047226;28;20121;-79
2024/03/19 01:19:00;;;;;;;9.63;5.50;;;;;;;;;;5030681;28;20088;-80
2024/03/19 01:21:26;;;;;;;8.90;4.83;;;;;;;;;;5047362;28;20108;-79
2024/03/19 01:23:51;;;;;;;8.40;4.47;;;;;;;;;;5031001;28;20036;-79
2024/03/19 01:26:16;;;;;;;9.20;4.30;;;;;;;;;;5043221;28;20025;-79
2024/03/19 01:28:42;;;;;;;8.87;5.53;;;;;;;;;;5043464;28;20029;-79
2024/03/19 01:31:07;;;;;;;9.70;5.13;;;;;;;;;;5030974;28;20063;-79
2024/03/19 01:33:32;;;;;;;10.23;4.97;;;;;;;;;;5040636;28;20086;-80
2024/03/19 01:35:57;;;;;;;9.83;5.60;;;;;;;;;;5032076;28;20031;-79
2024/03/19 01:38:25;;;;;;;9.77;4.43;;;;;;;;;;5044931;28;20025;-80
2024/03/19 01:40:51;;;;;;;8.70;4.93;;;;;;;;;;5029566;28;20554;-79
2024/03/19 01:43:18;;;;;;;9.23;5.30;;;;;;;;;;5045071;28;20095;-79
2024/03/19 01:45:43;;;;;;;9.47;4.43;;;;;;;;;;5026539;28;20025;-79
2024/03/19 01:48:09;;;;;;;9.13;4.83;;;;;;;;;;5045911;28;20028;-79
2024/03/19 01:50:35;;;;;;;8.67;5.43;;;;;;;;;;5048581;28;20037;-79
2024/03/19 01:53:01;;;;;;;9.40;4.77;;;;;;;;;;5046501;28;20298;-79
2024/03/19 01:55:26;;;;;;;8.97;4.93;;;;;;;;;;5048540;28;20028;-80
2024/03/19 01:57:52;;;;;;;11.23;5.53;;;;;;;;;;5043333;28;20516;-79
2024/03/19 02:00:17;;;;;;;12.57;5.77;;;;;;;;;;5032287;28;20022;-80
2024/03/19 02:02:42;;;;;;;8.73;5.07;;;;;;;;;;5046250;28;20045;-79
2024/03/19 02:05:08;;;;;;;11.17;5.80;;;;;;;;;;5047669;28;20035;-79
2024/03/19 02:07:34;;;;;;;8.20;4.40;;;;;;;;;;5047857;28;20043;-79
2024/03/19 02:10:00;;;;;;;10.63;6.40;;;;;;;;;;5030595;28;20017;-78
2024/03/19 02:12:26;;;;;;;11.00;6.40;;;;;;;;;;5043399;28;20036;-78
2024/03/19 02:14:51;;;;;;;10.00;5.50;;;;;;;;;;5026780;28;20034;-78
2024/03/19 02:17:16;;;;;;;10.57;5.73;;;;;;;;;;5049030;28;20036;-78
2024/03/19 02:19:42;;;;;;;10.07;5.43;;;;;;;;;;5049018;28;20021;-78
2024/03/19 02:22:09;;;;;;;9.70;5.20;;;;;;;;;;5030586;28;20494;-78
2024/03/19 02:24:35;;;;;;;10.63;5.43;;;;;;;;;;5045917;28;20030;-78
2024/03/19 02:27:00;;;;;;;12.17;5.93;;;;;;;;;;5041788;28;20092;-78
2024/03/19 02:29:25;;;;;;;10.73;5.73;;;;;;;;;;5043200;28;20029;-78
2024/03/19 02:31:50;;;;;;;9.20;5.33;;;;;;;;;;5049511;28;20044;-78
2024/03/19 02:34:15;;;;;;;11.70;5.70;;;;;;;;;;5046096;28;20037;-78
2024/03/19 02:36:40;;;;;;;9.57;5.50;;;;;;;;;;5033118;28;20057;-78
2024/03/19 02:39:07;;;;;;;10.47;5.47;;;;;;;;;;5042415;28;20110;-79
2024/03/19 02:41:32;;;;;;;9.93;5.20;;;;;;;;;;5036462;28;20025;-78
2024/03/19 02:43:57;;;;;;;12.20;5.57;;;;;;;;;;5042214;28;20055;-77
2024/03/19 02:46:24;;;;;;;10.30;4.90;;;;;;;;;;5049417;28;20100;-78
2024/03/19 02:48:49;;;;;;;11.40;5.30;;;;;;;;;;5050719;28;20056;-79
2024/03/19 02:51:14;;;;;;;11.03;4.60;;;;;;;;;;5047797;28;20154;-78
2024/03/19 02:53:39;;;;;;;8.70;4.73;;;;;;;;;;5048380;28;20028;-78
2024/03/19 02:56:05;;;;;;;13.80;6.23;;;;;;;;;;5046963;28;20105;-78
2024/03/19 02:58:30;;;;;;;9.30;5.43;;;;;;;;;;5049968;28;20108;-79
2024/03/19 03:00:56;;;;;;;12.90;5.90;;;;;;;;;;5051760;28;20025;-78
2024/03/19 03:03:21;;;;;;;13.03;5.87;;;;;;;;;;5049558;28;20025;-78
2024/03/19 03:05:46;;;;;;;11.90;5.23;;;;;;;;;;5030839;28;20028;-79
2024/03/19 03:08:11;;;;;;;11.97;6.00;;;;;;;;;;5045640;28;20042;-77
2024/03/19 03:10:37;;;;;;;11.07;5.27;;;;;;;;;;5045739;28;20473;-78
2024/03/19 03:13:02;;;;;;;10.70;5.67;;;;;;;;;;5049588;28;20405;-78
2024/03/19 03:15:28;;;;;;;10.97;5.27;;;;;;;;;;5051498;28;20099;-78
2024/03/19 03:17:54;;;;;;;11.17;5.67;;;;;;;;;;5049151;28;20093;-78
2024/03/19 03:20:20;;;;;;;9.27;4.63;;;;;;;;;;5047929;28;20044;-78
2024/03/19 03:22:45;;;;;;;10.87;5.90;;;;;;;;;;5046670;28;20029;-78
2024/03/19 03:25:15;;;;;;;10.10;5.33;;;;;;;;;;5031304;28;20080;-79
2024/03/19 03:27:41;;;;;;;10.20;5.40;;;;;;;;;;5052610;28;20512;-78
2024/03/19 03:30:08;;;;;;;11.03;6.23;;;;;;;;;;5049210;28;20095;-78
2024/03/19 03:32:34;;;;;;;8.80;5.40;;;;;;;;;;5049981;28;20068;-78
2024/03/19 03:35:00;;;;;;;9.33;5.17;;;;;;;;;;5032259;28;20022;-78
2024/03/19 03:37:25;;;;;;;11.43;5.33;;;;;;;;;;5045783;28;20610;-78
2024/03/19 03:39:51;;;;;;;9.97;4.90;;;;;;;;;;5045318;28;20074;-78
2024/03/19 03:42:17;;;;;;;13.33;5.50;;;;;;;;;;5032621;28;20220;-78
2024/03/19 03:44:42;;;;;;;10.60;5.63;;;;;;;;;;5051925;28;20029;-79
2024/03/19 03:47:08;;;;;;;12.00;5.83;;;;;;;;;;5047842;28;20105;-79
2024/03/19 03:49:33;;;;;;;9.10;4.97;;;;;;;;;;5047994;28;20033;-78
2024/03/19 03:51:58;;;;;;;8.77;5.13;;;;;;;;;;5046161;28;20041;-79
2024/03/19 03:54:24;;;;;;;11.73;5.93;;;;;;;;;;5048095;28;20029;-78
2024/03/19 03:56:49;;;;;;;10.63;5.77;;;;;;;;;;5035416;28;20056;-79
2024/03/19 03:59:14;;;;;;;11.27;5.93;;;;;;;;;;5030606;28;20098;-79
2024/03/19 04:01:39;;;;;;;9.87;5.60;;;;;;;;;;5048568;28;20087;-79
2024/03/19 04:04:05;;;;;;;9.50;5.23;;;;;;;;;;5028812;28;20020;-79
2024/03/19 04:06:30;;;;;;;8.97;5.37;;;;;;;;;;5048402;28;20481;-79
2024/03/19 04:08:55;;;;;;;12.87;6.37;;;;;;;;;;5035994;28;20118;-79
2024/03/19 04:11:21;;;;;;;13.50;6.17;;;;;;;;;;5050283;28;20037;-79
2024/03/19 04:13:46;;;;;;;13.40;6.57;;;;;;;;;;5050509;28;20041;-79
2024/03/19 04:16:11;;;;;;;11.97;6.63;;;;;;;;;;5047763;28;20033;-78
2024/03/19 04:18:36;;;;;;;15.20;6.17;;;;;;;;;;5046483;28;20127;-78
2024/03/19 04:21:02;;;;;;;11.47;5.67;;;;;;;;;;5028053;28;20687;-80
2024/03/19 04:23:27;;;;;;;12.80;6.70;;;;;;;;;;5039930;28;20033;-80
2024/03/19 04:25:52;;;;;;;11.07;6.10;;;;;;;;;;5052001;28;20496;-80
2024/03/19 04:28:17;;;;;;;11.97;6.87;;;;;;;;;;5034522;28;20080;-80
2024/03/19 04:30:43;;;;;;;10.43;6.70;;;;;;;;;;5047455;28;20090;-78
2024/03/19 04:33:08;;;;;;;11.93;6.17;;;;;;;;;;5042957;28;20095;-80
2024/03/19 04:35:35;;;;;;;14.77;6.77;;;;;;;;;;5035343;28;20029;-80
2024/03/19 04:38:01;;;;;;;11.03;5.87;;;;;;;;;;5046994;28;20501;-79
2024/03/19 04:40:27;;;;;;;11.17;6.07;;;;;;;;;;5050005;28;20048;-79
2024/03/19 04:42:53;;;;;;;13.47;6.10;;;;;;;;;;5046845;28;20520;-79
2024/03/19 04:45:18;;;;;;;12.07;6.17;;;;;;;;;;5048471;28;20057;-79
2024/03/19 04:47:43;;;;;;;11.57;6.00;;;;;;;;;;5046079;28;20039;-80
2024/03/19 04:50:09;;;;;;;12.40;5.93;;;;;;;;;;5034330;28;20060;-79
2024/03/19 04:52:34;;;;;;;12.30;6.67;;;;;;;;;;5051357;28;20139;-79
2024/03/19 04:55:00;;;;;;;9.70;6.10;;;;;;;;;;5049689;28;20033;-79
2024/03/19 04:57:25;;;;;;;12.80;6.87;;;;;;;;;;5030725;28;20029;-80
2024/03/19 04:59:51;;;;;;;12.00;6.93;;;;;;;;;;5045328;28;20033;-79
2024/03/19 05:02:16;;;;;;;14.27;6.67;;;;;;;;;;5042926;28;20060;-79
2024/03/19 05:04:42;;;;;;;10.83;5.93;;;;;;;;;;5052236;28;20078;-80
2024/03/19 05:07:07;;;;;;;10.63;6.27;;;;;;;;;;5045611;28;20103;-79
2024/03/19 05:09:33;;;;;;;10.83;6.30;;;;;;;;;;5049545;28;20029;-79
2024/03/19 05:11:58;;;;;;;12.10;6.40;;;;;;;;;;5032514;28;20025;-80
2024/03/19 05:14:23;;;;;;;12.87;6.70;;;;;;;;;;5047222;28;20033;-79
2024/03/19 05:16:48;;;;;;;10.90;6.83;;;;;;;;;;5047853;28;20452;-79
2024/03/19 05:19:14;;;;;;;11.80;6.73;;;;;;;;;;5031289;28;20032;-79
2024/03/19 05:21:39;;;;;;;10.57;5.83;;;;;;;;;;5038483;28;20077;-79
2024/03/19 05:24:05;;;;;;;11.67;6.87;;;;;;;;;;5049500;28;20024;-79
2024/03/19 05:26:30;;;;;;;10.83;6.60;;;;;;;;;;5052115;28;20052;-80
2024/03/19 05:28:56;;;;;;;30.47;17.27;;;;;;;;;;5046002;28;20702;-80
2024/03/19 05:31:22;;;;;;;49.13;23.67;;;;;;;;;;5047247;28;20535;-80
2024/03/19 05:33:51;;;;;;;20.50;11.07;;;;;;;;;;5050124;28;20040;-80
2024/03/19 05:36:16;;;;;;;18.57;8.87;;;;;;;;;;5048487;28;20033;-80
2024/03/19 05:38:41;;;;;;;12.70;7.27;;;;;;;;;;5047442;28;20029;-80
2024/03/19 05:41:07;;;;;;;15.17;7.73;;;;;;;;;;5047166;28;20036;-79
2024/03/19 05:43:32;;;;;;;11.73;6.90;;;;;;;;;;5030438;28;20125;-79
2024/03/19 05:45:57;;;;;;;12.40;6.90;;;;;;;;;;5051790;28;20085;-80
2024/03/19 05:48:22;;;;;;;17.13;9.50;;;;;;;;;;5048336;28;20424;-78
2024/03/19 05:50:47;;;;;;;15.47;9.47;;;;;;;;;;5052284;28;20039;-79
2024/03/19 05:53:13;;;;;;;14.37;8.20;;;;;;;;;;5044992;28;20112;-79
2024/03/19 05:55:38;;;;;;;13.90;8.50;;;;;;;;;;5051945;28;20493;-79
2024/03/19 05:58:03;;;;;;;15.90;7.97;;;;;;;;;;5045167;28;20521;-79
2024/03/19 06:00:28;;;;;;;15.83;9.07;;;;;;;;;;5046988;28;20029;-78
2024/03/19 06:02:53;;;;;;;17.90;8.00;;;;;;;;;;5046303;28;20051;-79
2024/03/19 06:05:19;;;;;;;17.07;9.00;;;;;;;;;;5048263;28;20504;-79
2024/03/19 06:07:44;;;;;;;22.37;11.93;;;;;;;;;;5046501;28;20028;-79
2024/03/19 06:10:09;;;;;;;16.60;9.77;;;;;;;;;;5041857;28;20032;-79
2024/03/19 06:12:35;;;;;;;13.23;8.17;;;;;;;;;;5042870;28;20025;-79
2024/03/19 06:15:00;;;;;;;16.27;8.70;;;;;;;;;;5032521;28;20088;-79
2024/03/19 06:17:26;;;;;;;16.80;8.87;;;;;;;;;;5048633;28;20465;-79
2024/03/19 06:19:52;;;;;;;13.30;8.10;;;;;;;;;;5033139;28;20489;-79
2024/03/19 06:22:17;;;;;;;17.13;9.10;;;;;;;;;;5049265;28;20660;-79
2024/03/19 06:24:42;;;;;;;16.93;9.20;;;;;;;;;;5051370;28;20032;-79
2024/03/19 06:27:07;;;;;;;15.53;8.30;;;;;;;;;;5041531;28;20056;-79
2024/03/19 06:29:33;;;;;;;13.60;8.73;;;;;;;;;;5054061;28;20025;-79
2024/03/19 06:31:58;;;;;;;16.50;9.50;;;;;;;;;;5051160;28;20508;-79
2024/03/19 06:34:23;;;;;;;14.00;8.23;;;;;;;;;;5049934;28;20033;-79
2024/03/19 06:36:51;;;;;;;18.27;9.40;;;;;;;;;;5046541;28;20108;-79
2024/03/19 06:39:17;;;;;;;17.13;9.73;;;;;;;;;;5046134;28;20379;-79
2024/03/19 06:41:42;;;;;;;12.67;8.13;;;;;;;;;;5054245;28;20040;-79
2024/03/19 06:44:08;;;;;;;15.47;9.00;;;;;;;;;;5052710;28;20247;-79
2024/03/19 06:46:33;;;;;;;17.10;9.10;;;;;;;;;;5053182;28;20029;-79
2024/03/19 06:48:58;;;;;;;16.63;9.70;;;;;;;;;;5048509;28;20043;-79
2024/03/19 06:51:23;;;;;;;15.10;8.87;;;;;;;;;;5047769;28;20033;-79
2024/03/19 06:53:49;;;;;;;15.13;8.40;;;;;;;;;;5046789;28;20037;-79
2024/03/19 06:56:14;;;;;;;23.97;13.90;;;;;;;;;;5053626;28;20037;-79
2024/03/19 06:58:42;;;;;;;20.35;10.90;;;;;;;;;;5052486;28;20108;-78
2024/03/19 07:01:09;;;;;;;16.60;9.57;;;;;;;;;;5034490;28;20033;-79
2024/03/19 07:03:34;;;;;;;16.92;9.75;;;;;;;;;;5048800;28;20021;-79
2024/03/19 07:05:59;;;;;;;19.60;10.75;;;;;;;;;;5048451;28;20044;-78
2024/03/19 07:08:25;;;;;;;16.25;9.02;;;;;;;;;;5049525;28;21297;-79
2024/03/19 07:10:51;;;;;;;14.02;8.85;;;;;;;;;;5052780;28;20032;-79
2024/03/19 07:13:16;;;;;;;17.63;8.73;;;;;;;;;;5034426;28;20034;-79
2024/03/19 07:15:42;;;;;;;15.43;9.50;;;;;;;;;;5052255;28;20032;-79
2024/03/19 07:18:09;;;;;;;16.80;10.02;;;;;;;;;;5045494;28;20444;-78
2024/03/19 07:20:38;;;;;;;14.82;8.52;;;;;;;;;;5036413;28;20108;-78
2024/03/19 07:23:05;;;;;;;13.18;9.25;;;;;;;;;;5045010;28;20445;-78
2024/03/19 07:25:30;;;;;;;14.75;9.18;;;;;;;;;;5052474;28;20508;-78
2024/03/19 07:27:55;;;;;;;17.45;10.43;;;;;;;;;;5032431;28;20066;-78
2024/03/19 07:30:22;;;;;;;14.77;8.32;;;;;;;;;;5034240;28;20555;-79
2024/03/19 07:32:47;;;;;;;17.17;8.63;;;;;;;;;;5033919;28;20029;-79
2024/03/19 07:35:13;;;;;;;16.63;8.68;;;;;;;;;;5049299;28;20473;-78
2024/03/19 07:37:39;;;;;;;13.25;8.40;;;;;;;;;;5050856;28;20441;-78
2024/03/19 07:40:04;;;;;;;15.23;9.48;;;;;;;;;;5032069;28;20067;-78
2024/03/19 07:42:30;;;;;;;17.20;9.50;;;;;;;;;;5049261;28;20049;-78
2024/03/19 07:44:55;;;;;;;16.15;10.02;;;;;;;;;;5056333;28;20021;-78
2024/03/19 07:47:20;;;;;;;17.38;9.70;;;;;;;;;;5047663;28;20029;-78
2024/03/19 07:49:46;;;;;;;15.13;8.90;;;;;;;;;;5045006;28;20025;-78
2024/03/19 07:52:11;;;;;;;13.50;8.32;;;;;;;;;;5034057;28;20033;-78
2024/03/19 07:54:36;;;;;;;15.18;9.27;;;;;;;;;;5051576;28;20033;-78
2024/03/19 07:57:02;;;;;;;14.65;8.13;;;;;;;;;;5047459;28;20048;-78
2024/03/19 07:59:27;;;;;;;12.27;8.13;;;;;;;;;;5028695;28;20065;-78
2024/03/19 08:01:52;;;;;;;17.27;11.57;;;;;;;;;;5044186;28;20029;-78
2024/03/19 08:04:20;;;;;;;17.13;10.30;;;;;;;;;;5046011;28;20029;-78
2024/03/19 08:06:46;;;;;;;12.23;8.23;;;;;;;;;;5048977;28;20057;-78
2024/03/19 08:09:11;;;;;;;14.15;9.30;;;;;;;;;;5046443;28;20076;-78
2024/03/19 08:11:36;;;;;;;16.17;10.63;;;;;;;;;;5035165;28;20032;-78
2024/03/19 08:14:01;;;;;;;17.23;10.73;;;;;;;;;;5045652;28;20036;-78
2024/03/19 08:16:27;;;;;;;18.25;9.85;;;;;;;;;;5045148;28;20554;-78
2024/03/19 08:18:53;;;;;;;16.75;9.77;;;;;;;;;;5038413;28;20035;-78
2024/03/19 08:21:20;;;;;;;16.65;10.63;;;;;;;;;;5049328;28;20505;-79
2024/03/19 08:23:46;;;;;;;14.27;8.52;;;;;;;;;;5048196;28;20083;-78
2024/03/19 08:26:12;;;;;;;15.73;9.10;;;;;;;;;;5046937;28;20458;-78
2024/03/19 08:28:37;;;;;;;18.00;10.65;;;;;;;;;;5046614;28;20052;-78
2024/03/19 08:31:04;;;;;;;15.00;9.05;;;;;;;;;;5041848;28;20063;-78
2024/03/19 08:33:30;;;;;;;13.63;9.30;;;;;;;;;;5050883;28;20446;-78
2024/03/19 08:35:56;;;;;;;13.85;8.52;;;;;;;;;;5047674;28;20108;-78
2024/03/19 08:38:21;;;;;;;12.32;8.32;;;;;;;;;;5032639;28;20456;-78
2024/03/19 08:40:46;;;;;;;14.88;9.40;;;;;;;;;;5034336;28;20033;-78
2024/03/19 08:43:12;;;;;;;14.43;9.52;;;;;;;;;;5024026;28;20076;-78
2024/03/19 08:45:37;;;;;;;14.48;8.32;;;;;;;;;;5036488;28;20032;-78
2024/03/19 08:48:02;;;;;;;17.60;8.35;;;;;;;;;;5034159;28;20029;-78
2024/03/19 08:50:28;;;;;;;13.88;8.02;;;;;;;;;;5033370;28;20508;-78
2024/03/19 08:52:53;;;;;;;12.63;7.90;;;;;;;;;;5031154;28;20029;-78
2024/03/19 08:55:18;;;;;;;14.60;9.52;;;;;;;;;;5033378;28;20611;-78
2024/03/19 08:57:43;;;;;;;13.23;7.88;;;;;;;;;;5045955;28;20401;-78
2024/03/19 09:00:14;;;;;;;16.40;10.18;;;;;;;;;;5048207;28;20025;-78
2024/03/19 09:02:40;;;;;;;14.90;9.75;;;;;;;;;;5048821;28;20366;-78
2024/03/19 09:05:06;;;;;;;16.02;8.30;;;;;;;;;;5046483;28;20085;-79
2024/03/19 09:07:31;;;;;;;12.05;8.35;;;;;;;;;;5047322;28;20096;-78
2024/03/19 09:09:56;;;;;;;12.10;7.15;;;;;;;;;;5044256;28;20045;-78
2024/03/19 09:12:22;;;;;;;10.63;7.60;;;;;;;;;;5032566;28;20041;-78
2024/03/19 09:14:47;;;;;;;14.27;7.50;;;;;;;;;;5051316;28;20441;-78
2024/03/19 09:17:13;;;;;;;14.32;7.90;;;;;;;;;;5048976;28;20572;-78
2024/03/19 09:19:39;;;;;;;16.52;8.77;;;;;;;;;;5048274;28;20120;-78
2024/03/19 09:22:04;;;;;;;12.32;7.47;;;;;;;;;;5044135;28;20432;-78
2024/03/19 09:24:30;;;;;;;10.15;6.80;;;;;;;;;;5045578;28;20036;-78
2024/03/19 09:26:55;;;;;;;10.20;6.78;;;;;;;;;;5044290;28;20040;-78
2024/03/19 09:29:20;;;;;;;11.07;6.90;;;;;;;;;;5050319;28;20039;-78
2024/03/19 09:31:47;;;;;;;13.35;7.45;;;;;;;;;;5034180;28;20028;-79
2024/03/19 09:34:12;;;;;;;9.95;6.97;;;;;;;;;;5028309;28;20097;-78
2024/03/19 09:36:37;;;;;;;10.32;6.05;;;;;;;;;;5034040;28;20124;-78
2024/03/19 09:39:07;;;;;;;9.60;6.75;;;;;;;;;;5044313;28;20025;-78
2024/03/19 09:41:33;;;;;;;9.73;6.75;;;;;;;;;;5047387;28;20029;-78
2024/03/19 09:43:59;;;;;;;12.30;6.95;;;;;;;;;;5049677;28;20035;-79
2024/03/19 09:46:25;;;;;;;11.30;6.82;;;;;;;;;;5048139;28;20041;-78
2024/03/19 09:48:51;;;;;;;12.85;7.68;;;;;;;;;;5045506;28;20033;-78
2024/03/19 09:51:22;;;;;;;10.98;7.25;;;;;;;;;;5041466;28;20495;-78
2024/03/19 09:53:48;;;;;;;13.70;7.50;;;;;;;;;;5041341;28;20481;-78
2024/03/19 09:56:19;;;;;;;10.90;7.00;;;;;;;;;;5048047;28;20040;-79
2024/03/19 09:58:45;;;;;;;10.52;6.80;;;;;;;;;;5050811;28;20048;-78
2024/03/19 10:01:10;;;;;;;12.93;7.20;;;;;;;;;;5028100;28;20025;-78
2024/03/19 10:03:35;;;;;;;12.90;7.43;;;;;;;;;;5033545;28;20033;-78
2024/03/19 10:06:00;;;;;;;11.65;7.20;;;;;;;;;;5043761;28;20021;-78
2024/03/19 10:08:26;;;;;;;10.40;6.88;;;;;;;;;;5044729;28;20096;-79
2024/03/19 10:10:51;;;;;;;12.13;7.63;;;;;;;;;;5048315;28;20485;-78
2024/03/19 10:13:16;;;;;;;11.23;7.10;;;;;;;;;;5032759;28;20033;-78
2024/03/19 10:15:41;;;;;;;13.02;8.57;;;;;;;;;;5047486;28;20160;-78
2024/03/19 10:18:08;;;;;;;11.68;7.10;;;;;;;;;;5023516;28;20459;-78
2024/03/19 10:20:36;;;;;;;13.55;7.95;;;;;;;;;;5024778;28;20083;-79
2024/03/19 10:23:03;;;;;;;10.50;6.57;;;;;;;;;;5046652;28;20025;-79
2024/03/19 10:25:28;;;;;;;11.32;5.47;;;;;;;;;;5046198;28;20029;-79
2024/03/19 10:27:54;;;;;;;12.25;6.10;;;;;;;;;;5048078;28;20029;-78
2024/03/19 10:30:20;;;;;;;7.72;4.15;;;;;;;;;;5043985;28;20030;-78
2024/03/19 10:32:46;;;;;;;7.78;4.97;;;;;;;;;;5044139;28;20378;-78
2024/03/19 10:35:18;;;;;;;17.10;10.35;;;;;;;;;;5040325;28;20048;-78
2024/03/19 10:37:45;;;;;;;10.35;6.93;;;;;;;;;;5041484;28;20397;-78
2024/03/19 10:40:12;;;;;;;10.57;6.47;;;;;;;;;;5032323;28;20029;-78
2024/03/19 10:42:37;;;;;;;10.18;6.18;;;;;;;;;;5047368;28;20029;-78
2024/03/19 10:45:03;;;;;;;7.90;4.95;;;;;;;;;;5045100;28;20033;-78
2024/03/19 10:47:29;;;;;;;10.95;6.57;;;;;;;;;;5043678;28;20517;-78
2024/03/19 10:49:54;;;;;;;9.27;5.70;;;;;;;;;;5042049;28;20021;-78
2024/03/19 10:52:22;;;;;;;9.57;5.40;;;;;;;;;;5048769;28;20025;-78
2024/03/19 10:54:47;;;;;;;8.88;5.35;;;;;;;;;;5044918;28;20021;-78
2024/03/19 10:57:15;;;;;;;9.80;6.07;;;;;;;;;;5043864;28;20051;-79
2024/03/19 10:59:40;;;;;;;9.90;5.45;;;;;;;;;;5048138;28;20052;-79
2024/03/19 11:02:09;;;;;;;8.50;4.88;;;;;;;;;;5043912;28;20037;-78
2024/03/19 11:04:36;;;;;;;9.80;6.15;;;;;;;;;;5056198;28;20071;-78
2024/03/19 11:07:02;;;;;;;9.00;5.88;;;;;;;;;;5048124;28;20021;-78
2024/03/19 11:09:28;;;;;;;9.90;5.97;;;;;;;;;;5036955;28;20094;-78
2024/03/19 11:11:54;;;;;;;7.50;4.88;;;;;;;;;;5053578;28;20599;-78
2024/03/19 11:14:20;;;;;;;13.98;8.80;;;;;;;;;;5038808;28;20048;-79
2024/03/19 11:16:46;;;;;;;9.77;5.60;;;;;;;;;;5037586;28;20025;-78
2024/03/19 11:19:18;;;;;;;8.70;5.55;;;;;;;;;;5054827;28;20035;-78
2024/03/19 11:21:45;;;;;;;7.90;4.70;;;;;;;;;;5039907;28;20127;-78
2024/03/19 11:24:19;;;;;;;6.95;4.93;;;;;;;;;;5053233;28;20037;-78
2024/03/19 11:26:44;;;;;;;7.13;4.53;;;;;;;;;;5054658;28;20029;-78
2024/03/19 11:29:14;;;;;;;6.85;4.85;;;;;;;;;;5052578;28;20026;-78
2024/03/19 11:31:43;;;;;;;5.00;3.53;;;;;;;;;;5055175;28;20063;-78
2024/03/19 11:34:12;;;;;;;8.43;4.78;;;;;;;;;;5055021;28;20041;-79
2024/03/19 11:36:37;;;;;;;6.93;4.55;;;;;;;;;;5053231;28;20497;-78
2024/03/19 11:39:03;;;;;;;8.90;5.28;;;;;;;;;;5052563;28;20028;-78
2024/03/19 11:41:28;;;;;;;9.18;5.60;;;;;;;;;;5052633;28;20028;-79
2024/03/19 11:43:53;;;;;;;7.43;5.18;;;;;;;;;;5050139;28;20465;-78
2024/03/19 11:46:20;;;;;;;10.55;6.40;;;;;;;;;;5050962;28;20040;-79
2024/03/19 11:48:50;;;;;;;8.57;4.50;;;;;;;;;;5046712;28;20040;-78
2024/03/19 11:51:15;;;;;;;7.68;3.95;;;;;;;;;;5048947;28;20115;-78
2024/03/19 11:53:40;;;;;;;6.20;3.95;;;;;;;;;;5036023;28;20093;-79
2024/03/19 11:56:09;;;;;;;7.03;3.47;;;;;;;;;;5045939;28;20389;-78
2024/03/19 11:58:35;;;;;;;5.55;3.72;;;;;;;;;;5046904;28;20108;-77
2024/03/19 12:01:01;;;;;;;6.80;4.30;;;;;;;;;;5031472;28;20025;-77
2024/03/19 12:03:26;;;;;;;6.50;3.83;;;;;;;;;;5034201;28;20037;-78
2024/03/19 12:05:51;;;;;;;7.38;4.13;;;;;;;;;;5051211;28;20025;-77
2024/03/19 12:08:17;;;;;;;7.70;4.55;;;;;;;;;;5050097;28;20098;-78
2024/03/19 12:10:42;;;;;;;6.75;4.18;;;;;;;;;;5047720;28;20037;-78
2024/03/19 12:13:08;;;;;;;6.25;3.53;;;;;;;;;;5042235;28;20048;-78
2024/03/19 12:15:33;;;;;;;6.00;2.92;;;;;;;;;;5035326;28;20033;-78
2024/03/19 12:17:59;;;;;;;5.40;2.92;;;;;;;;;;5039975;28;20036;-78
2024/03/19 12:20:25;;;;;;;7.40;4.75;;;;;;;;;;5047801;28;20022;-78
2024/03/19 12:22:51;;;;;;;5.95;3.78;;;;;;;;;;5046514;28;20101;-78
2024/03/19 12:25:17;;;;;;;9.20;4.18;;;;;;;;;;5047341;28;20029;-78
2024/03/19 12:27:43;;;;;;;7.07;4.03;;;;;;;;;;5046111;28;20105;-78
2024/03/19 12:30:15;;;;;;;7.03;4.63;;;;;;;;;;5053323;28;20482;-78
2024/03/19 12:33:10;;;;;;;6.80;4.67;;;;;;;;;;5040626;28;20116;-77
2024/03/19 12:35:35;;;;;;;7.85;4.55;;;;;;;;;;5049011;28;20279;-78
2024/03/19 12:38:01;;;;;;;7.55;4.78;;;;;;;;;;5042879;28;20112;-78
2024/03/19 12:40:27;;;;;;;10.98;6.55;;;;;;;;;;5046173;28;20033;-78
2024/03/19 12:42:54;;;;;;;12.85;8.93;;;;;;;;;;5049695;28;20036;-78
2024/03/19 12:45:19;;;;;;;6.90;4.93;;;;;;;;;;5051173;28;20413;-78
2024/03/19 12:47:45;;;;;;;6.90;5.35;;;;;;;;;;5053034;28;20033;-78
2024/03/19 12:50:11;;;;;;;8.80;5.82;;;;;;;;;;5053278;28;20032;-78
2024/03/19 12:52:43;;;;;;;8.82;5.72;;;;;;;;;;5034035;28;20025;-77
2024/03/19 12:55:15;;;;;;;6.40;4.32;;;;;;;;;;5021845;28;20033;-78
2024/03/19 12:57:40;;;;;;;8.02;5.00;;;;;;;;;;5055163;28;20025;-77
2024/03/19 13:00:15;;;;;;;6.38;4.28;;;;;;;;;;5055033;28;20025;-78
2024/03/19 13:02:41;;;;;;;11.05;4.05;;;;;;;;;;5034945;28;20024;-78
2024/03/19 13:05:07;;;;;;;6.57;3.88;;;;;;;;;;5053545;28;20025;-78
2024/03/19 13:07:33;;;;;;;5.68;3.50;;;;;;;;;;5037158;28;20065;-78
2024/03/19 13:09:58;;;;;;;8.02;3.70;;;;;;;;;;5051307;28;20041;-78
2024/03/19 13:12:24;;;;;;;6.45;3.58;;;;;;;;;;5039730;28;20037;-78
2024/03/19 13:14:49;;;;;;;5.93;3.70;;;;;;;;;;5056955;28;20064;-78
2024/03/19 13:17:14;;;;;;;5.50;3.40;;;;;;;;;;5052742;28;20039;-78
2024/03/19 13:19:39;;;;;;;6.35;4.25;;;;;;;;;;5041147;28;20029;-78
2024/03/19 13:22:05;;;;;;;5.03;3.55;;;;;;;;;;5039085;28;20026;-77
2024/03/19 13:24:31;;;;;;;8.27;5.38;;;;;;;;;;5040167;28;20025;-78
2024/03/19 13:26:56;;;;;;;7.80;5.70;;;;;;;;;;5041183;28;20064;-77
2024/03/19 13:29:21;;;;;;;9.52;7.35;;;;;;;;;;5053568;28;20038;-79
2024/03/19 13:31:47;;;;;;;11.45;8.23;;;;;;;;;;5053593;28;20037;-78
2024/03/19 13:34:12;;;;;;;10.90;8.45;;;;;;;;;;5048661;28;20022;-78
2024/03/19 13:36:37;;;;;;;8.93;5.20;;;;;;;;;;5054311;28;20060;-78
2024/03/19 13:39:04;;;;;;;5.82;3.58;;;;;;;;;;5053282;28;20036;-78
2024/03/19 13:41:30;;;;;;;8.02;5.88;;;;;;;;;;5054328;28;20436;-78
2024/03/19 13:43:55;;;;;;;9.52;7.18;;;;;;;;;;5040897;28;20096;-78
2024/03/19 13:46:20;;;;;;;5.65;3.67;;;;;;;;;;5039836;28;20068;-78
2024/03/19 13:48:45;;;;;;;8.60;4.65;;;;;;;;;;5057537;28;20432;-78
2024/03/19 13:51:12;;;;;;;7.70;4.55;;;;;;;;;;5051429;28;20053;-78
2024/03/19 13:53:37;;;;;;;6.15;4.55;;;;;;;;;;5056127;28;20539;-78
2024/03/19 13:56:02;;;;;;;5.85;3.67;;;;;;;;;;5039900;28;20071;-78
2024/03/19 13:58:28;;;;;;;6.28;4.65;;;;;;;;;;5052005;28;20064;-78
2024/03/19 14:00:57;;;;;;;8.63;6.65;;;;;;;;;;5040115;28;20064;-78
2024/03/19 14:03:23;;;;;;;9.70;5.32;;;;;;;;;;5029775;28;20029;-79
2024/03/19 14:05:49;;;;;;;6.53;3.80;;;;;;;;;;5055152;28;20823;-78
2024/03/19 14:08:17;;;;;;;13.57;9.95;;;;;;;;;;5055709;28;20025;-77
2024/03/19 14:10:47;;;;;;;9.38;4.30;;;;;;;;;;5055757;28;20044;-79
2024/03/19 14:13:12;;;;;;;7.50;5.63;;;;;;;;;;5039096;28;20036;-78
2024/03/19 14:15:37;;;;;;;7.63;4.18;;;;;;;;;;5055799;28;20036;-79
2024/03/19 14:18:06;;;;;;;6.80;4.80;;;;;;;;;;5049407;28;20033;-77
2024/03/19 14:20:31;;;;;;;8.20;3.58;;;;;;;;;;5041981;28;20264;-79
2024/03/19 14:22:57;;;;;;;6.22;2.78;;;;;;;;;;5058171;28;20102;-78
2024/03/19 14:25:22;;;;;;;6.72;3.30;;;;;;;;;;5056232;28;20063;-79
2024/03/19 14:27:47;;;;;;;4.35;3.05;;;;;;;;;;5054096;28;20032;-78